createdAt,value
2024-03-16T00:01:48.309Z,12.70
2024-03-16T00:06:52.067Z,12.70
2024-03-16T00:11:55.791Z,12.70
2024-03-16T00:16:59.494Z,12.70
2024-03-16T00:22:03.375Z,12.70
2024-03-16T00:27:09.369Z,12.70
2024-03-16T00:32:13.034Z,12.70
2024-03-16T00:37:16.707Z,12.70
2024-03-16T00:42:21.198Z,12.70
2024-03-16T00:47:24.951Z,12.60
2024-03-16T00:52:28.660Z,12.60
2024-03-16T00:57:32.381Z,12.60
2024-03-16T01:02:36.081Z,12.50
2024-03-16T01:07:39.737Z,12.40
2024-03-16T01:12:43.397Z,12.40
2024-03-16T01:17:48.094Z,12.50
2024-03-16T01:22:51.826Z,12.50
2024-03-16T01:27:55.503Z,12.50
2024-03-16T01:32:59.399Z,12.40
2024-03-16T01:38:03.088Z,12.40
2024-03-16T01:43:06.772Z,12.50
2024-03-16T01:48:11.784Z,12.50
2024-03-16T01:53:15.468Z,12.50
2024-03-16T01:58:19.223Z,12.50
2024-03-16T02:03:22.986Z,12.50
2024-03-16T02:08:28.488Z,12.50
2024-03-16T02:13:32.408Z,12.40
2024-03-16T02:18:36.337Z,12.40
2024-03-16T02:23:40.905Z,12.40
2024-03-16T02:28:44.635Z,12.40
2024-03-16T02:33:48.253Z,12.40
2024-03-16T02:38:51.900Z,12.40
2024-03-16T02:43:55.889Z,12.40
2024-03-16T02:48:59.536Z,12.40
2024-03-16T02:54:03.256Z,12.40
2024-03-16T02:59:06.949Z,12.40
2024-03-16T03:04:10.786Z,12.40
2024-03-16T03:09:15.167Z,12.30
2024-03-16T03:14:18.909Z,12.30
2024-03-16T03:19:22.559Z,12.30
2024-03-16T03:24:26.250Z,12.40
2024-03-16T03:29:29.998Z,12.40
2024-03-16T03:34:33.643Z,12.30
2024-03-16T03:39:37.347Z,12.30
2024-03-16T03:44:51.280Z,12.30
2024-03-16T03:49:55.124Z,12.30
2024-03-16T03:54:58.866Z,12.20
2024-03-16T04:00:02.542Z,12.20
2024-03-16T04:05:06.402Z,12.10
2024-03-16T04:10:10.187Z,12.10
2024-03-16T04:15:14.125Z,12.10
2024-03-16T04:20:17.961Z,12.10
2024-03-16T04:25:23.028Z,12.10
2024-03-16T04:30:27.746Z,12.10
2024-03-16T04:35:31.556Z,12.00
2024-03-16T04:40:35.217Z,12.00
2024-03-16T04:45:38.909Z,12.00
2024-03-16T04:50:42.623Z,12.00
2024-03-16T04:55:46.278Z,12.00
2024-03-16T05:00:50.052Z,12.00
2024-03-16T05:05:53.808Z,12.00
2024-03-16T05:10:59.956Z,12.00
2024-03-16T05:16:08.455Z,11.90
2024-03-16T05:21:13.401Z,11.90
2024-03-16T05:26:18.390Z,11.90
2024-03-16T05:31:22.063Z,11.90
2024-03-16T05:36:25.748Z,11.90
2024-03-16T05:41:29.418Z,11.90
2024-03-16T05:46:33.041Z,11.90
2024-03-16T05:51:36.807Z,11.90
2024-03-16T05:56:40.955Z,11.90
2024-03-16T06:01:44.744Z,11.80
2024-03-16T06:06:48.595Z,11.80
2024-03-16T06:11:52.315Z,11.80
2024-03-16T06:16:56.040Z,11.80
2024-03-16T06:21:59.739Z,11.80
2024-03-16T06:27:06.821Z,11.60
2024-03-16T06:32:10.564Z,11.50
2024-03-16T06:37:14.301Z,11.50
2024-03-16T06:42:18.077Z,11.50
2024-03-16T06:47:21.733Z,11.40
2024-03-16T06:52:26.575Z,11.40
2024-03-16T06:57:30.268Z,11.30
2024-03-16T07:02:33.931Z,11.30
2024-03-16T07:07:37.646Z,11.30
2024-03-16T07:12:41.625Z,11.30
2024-03-16T07:17:45.386Z,11.30
2024-03-16T07:22:49.112Z,11.30
2024-03-16T07:27:52.971Z,11.30
2024-03-16T07:32:57.400Z,11.40
2024-03-16T07:38:01.128Z,11.40
2024-03-16T07:43:05.324Z,11.40
2024-03-16T07:48:09.162Z,11.40
2024-03-16T07:53:12.838Z,11.40
2024-03-16T07:58:16.523Z,11.40
2024-03-16T08:03:20.313Z,11.30
2024-03-16T08:08:24.092Z,11.30
2024-03-16T08:13:28.721Z,11.30
2024-03-16T08:18:32.549Z,11.30
2024-03-16T08:23:36.287Z,11.30
2024-03-16T08:28:40.129Z,11.30
2024-03-16T08:33:43.912Z,11.30
2024-03-16T08:38:47.893Z,11.20
2024-03-16T08:43:51.578Z,11.20
2024-03-16T08:48:55.354Z,11.20
2024-03-16T08:53:59.177Z,11.20
2024-03-16T08:59:03.997Z,11.10
2024-03-16T09:04:09.498Z,11.20
2024-03-16T09:09:13.380Z,11.20
2024-03-16T09:14:17.096Z,11.30
2024-03-16T09:19:20.917Z,11.30
2024-03-16T09:24:24.582Z,11.20
2024-03-16T09:29:28.253Z,11.30
2024-03-16T09:34:31.928Z,11.20
2024-03-16T09:39:35.788Z,11.20
